sensor_id;sensor_type;location;lat;lon;timestamp;P1;P2;P0
40947;PMS5003;49382;-25.924;28.194;2022-09-01T00:00:06;59;59;
40947;PMS5003;49382;-25.924;28.194;2022-09-01T00:02:30;60;59;
40947;PMS5003;49382;-25.924;28.194;2022-09-01T00:04:55;47;47;
40947;PMS5003;49382;-25.924;28.194;2022-09-01T00:07:21;51;51;
40947;PMS5003;49382;-25.924;28.194;2022-09-01T00:09:46;33;32;
40947;PMS5003;49382;-25.924;28.194;2022-09-01T00:12:12;39;39;
40947;PMS5003;49382;-25.924;28.194;2022-09-01T00:14:38;34;34;
40947;PMS5003;49382;-25.924;28.194;2022-09-01T00:17:04;40;40;
40947;PMS5003;49382;-25.924;28.194;2022-09-01T00:19:28;26;25;
40947;PMS5003;49382;-25.924;28.194;2022-09-01T00:21:53;54;54;
40947;PMS5003;49382;-25.924;28.194;2022-09-01T00:24:20;12;11;
40947;PMS5003;49382;-25.924;28.194;2022-09-01T00:26:43;12;12;
40947;PMS5003;49382;-25.924;28.194;2022-09-01T00:29:09;51;50;
40947;PMS5003;49382;-25.924;28.194;2022-09-01T00:31:34;15;15;
40947;PMS5003;49382;-25.924;28.194;2022-09-01T00:33:59;16;13;
40947;PMS5003;49382;-25.924;28.194;2022-09-01T00:36:25;15;14;
40947;PMS5003;49382;-25.924;28.194;2022-09-01T00:38:50;13;13;
40947;PMS5003;49382;-25.924;28.194;2022-09-01T00:41:16;67;66;
40947;PMS5003;49382;-25.924;28.194;2022-09-01T00:43:41;39;38;
40947;PMS5003;49382;-25.924;28.194;2022-09-01T00:46:06;28;28;
40947;PMS5003;49382;-25.924;28.194;2022-09-01T00:48:31;35;34;
40947;PMS5003;49382;-25.924;28.194;2022-09-01T00:50:56;15;14;
40947;PMS5003;49382;-25.924;28.194;2022-09-01T00:53:21;16;16;
40947;PMS5003;49382;-25.924;28.194;2022-09-01T00:55:46;13;12;
40947;PMS5003;49382;-25.924;28.194;2022-09-01T00:58:11;14;14;
40947;PMS5003;49382;-25.924;28.194;2022-09-01T01:00:37;16;15;
40947;PMS5003;49382;-25.924;28.194;2022-09-01T01:03:02;14;14;
40947;PMS5003;49382;-25.924;28.194;2022-09-01T01:05:30;16;15;
40947;PMS5003;49382;-25.924;28.194;2022-09-01T01:07:52;15;15;
40947;PMS5003;49382;-25.924;28.194;2022-09-01T01:10:18;14;14;
40947;PMS5003;49382;-25.924;28.194;2022-09-01T01:12:43;16;15;
40947;PMS5003;49382;-25.924;28.194;2022-09-01T01:15:08;16;16;
40947;PMS5003;49382;-25.924;28.194;2022-09-01T01:17:34;15;15;
40947;PMS5003;49382;-25.924;28.194;2022-09-01T01:19:58;14;14;
40947;PMS5003;49382;-25.924;28.194;2022-09-01T01:22:25;14;13;
40947;PMS5003;49382;-25.924;28.194;2022-09-01T01:24:48;16;15;
40947;PMS5003;49382;-25.924;28.194;2022-09-01T01:27:14;15;14;
40947;PMS5003;49382;-25.924;28.194;2022-09-01T01:29:39;13;12;
40947;PMS5003;49382;-25.924;28.194;2022-09-01T01:32:04;12;12;
40947;PMS5003;49382;-25.924;28.194;2022-09-01T01:34:29;12;12;
40947;PMS5003;49382;-25.924;28.194;2022-09-01T01:36:54;14;14;
40947;PMS5003;49382;-25.924;28.194;2022-09-01T01:39:21;13;13;
40947;PMS5003;49382;-25.924;28.194;2022-09-01T01:41:45;13;12;
40947;PMS5003;49382;-25.924;28.194;2022-09-01T01:44:11;11;11;
40947;PMS5003;49382;-25.924;28.194;2022-09-01T01:46:38;12;11;
40947;PMS5003;49382;-25.924;28.194;2022-09-01T01:49:02;14;14;
40947;PMS5003;49382;-25.924;28.194;2022-09-01T01:51:27;16;16;
40947;PMS5003;49382;-25.924;28.194;2022-09-01T01:53:52;14;14;
40947;PMS5003;49382;-25.924;28.194;2022-09-01T01:56:17;15;15;
40947;PMS5003;49382;-25.924;28.194;2022-09-01T01:58:42;12;12;
40947;PMS5003;49382;-25.924;28.194;2022-09-01T02:01:07;14;14;
40947;PMS5003;49382;-25.924;28.194;2022-09-01T02:03:33;15;13;
40947;PMS5003;49382;-25.924;28.194;2022-09-01T02:05:58;13;13;
40947;PMS5003;49382;-25.924;28.194;2022-09-01T02:08:23;11;11;
40947;PMS5003;49382;-25.924;28.194;2022-09-01T02:10:49;11;11;
40947;PMS5003;49382;-25.924;28.194;2022-09-01T02:13:15;13;12;
40947;PMS5003;49382;-25.924;28.194;2022-09-01T02:15:40;14;14;
40947;PMS5003;49382;-25.924;28.194;2022-09-01T02:18:05;15;12;
40947;PMS5003;49382;-25.924;28.194;2022-09-01T02:20:31;15;15;
40947;PMS5003;49382;-25.924;28.194;2022-09-01T02:22:57;14;13;
40947;PMS5003;49382;-25.924;28.194;2022-09-01T02:25:22;12;12;
40947;PMS5003;49382;-25.924;28.194;2022-09-01T02:27:47;12;12;
40947;PMS5003;49382;-25.924;28.194;2022-09-01T02:30:12;14;14;
40947;PMS5003;49382;-25.924;28.194;2022-09-01T02:32:37;13;12;
40947;PMS5003;49382;-25.924;28.194;2022-09-01T02:35:03;14;12;
40947;PMS5003;49382;-25.924;28.194;2022-09-01T02:37:28;13;13;
40947;PMS5003;49382;-25.924;28.194;2022-09-01T02:39:53;15;15;
40947;PMS5003;49382;-25.924;28.194;2022-09-01T02:42:18;14;14;
40947;PMS5003;49382;-25.924;28.194;2022-09-01T02:44:44;14;14;
40947;PMS5003;49382;-25.924;28.194;2022-09-01T02:47:09;11;10;
40947;PMS5003;49382;-25.924;28.194;2022-09-01T02:49:34;14;11;
40947;PMS5003;49382;-25.924;28.194;2022-09-01T02:51:59;13;13;
40947;PMS5003;49382;-25.924;28.194;2022-09-01T02:54:25;14;13;
40947;PMS5003;49382;-25.924;28.194;2022-09-01T02:56:50;13;12;
40947;PMS5003;49382;-25.924;28.194;2022-09-01T02:59:15;13;13;
40947;PMS5003;49382;-25.924;28.194;2022-09-01T03:01:41;15;13;
40947;PMS5003;49382;-25.924;28.194;2022-09-01T03:04:07;13;12;
40947;PMS5003;49382;-25.924;28.194;2022-09-01T03:06:32;11;11;
40947;PMS5003;49382;-25.924;28.194;2022-09-01T03:08:57;12;12;
40947;PMS5003;49382;-25.924;28.194;2022-09-01T03:11:23;16;16;
40947;PMS5003;49382;-25.924;28.194;2022-09-01T03:13:48;14;14;
40947;PMS5003;49382;-25.924;28.194;2022-09-01T03:16:13;14;14;
40947;PMS5003;49382;-25.924;28.194;2022-09-01T03:18:38;11;11;
40947;PMS5003;49382;-25.924;28.194;2022-09-01T03:21:04;11;11;
40947;PMS5003;49382;-25.924;28.194;2022-09-01T03:23:29;15;14;
40947;PMS5003;49382;-25.924;28.194;2022-09-01T03:25:54;13;13;
40947;PMS5003;49382;-25.924;28.194;2022-09-01T03:28:19;13;12;
40947;PMS5003;49382;-25.924;28.194;2022-09-01T03:30:45;13;11;
40947;PMS5003;49382;-25.924;28.194;2022-09-01T03:33:09;13;13;
40947;PMS5003;49382;-25.924;28.194;2022-09-01T03:35:35;12;12;
40947;PMS5003;49382;-25.924;28.194;2022-09-01T03:38:00;14;14;
40947;PMS5003;49382;-25.924;28.194;2022-09-01T03:40:25;14;14;
40947;PMS5003;49382;-25.924;28.194;2022-09-01T03:42:50;13;13;
40947;PMS5003;49382;-25.924;28.194;2022-09-01T03:45:15;13;13;
40947;PMS5003;49382;-25.924;28.194;2022-09-01T03:47:40;13;13;
40947;PMS5003;49382;-25.924;28.194;2022-09-01T03:50:07;12;12;
40947;PMS5003;49382;-25.924;28.194;2022-09-01T03:52:31;14;14;
40947;PMS5003;49382;-25.924;28.194;2022-09-01T03:54:57;13;12;
40947;PMS5003;49382;-25.924;28.194;2022-09-01T03:57:21;15;15;
40947;PMS5003;49382;-25.924;28.194;2022-09-01T03:59:46;15;14;
40947;PMS5003;49382;-25.924;28.194;2022-09-01T04:02:11;13;13;
40947;PMS5003;49382;-25.924;28.194;2022-09-01T04:04:37;14;14;
40947;PMS5003;49382;-25.924;28.194;2022-09-01T04:07:02;15;15;
40947;PMS5003;49382;-25.924;28.194;2022-09-01T04:09:28;18;17;
40947;PMS5003;49382;-25.924;28.194;2022-09-01T04:11:53;19;16;
40947;PMS5003;49382;-25.924;28.194;2022-09-01T04:14:19;16;16;
40947;PMS5003;49382;-25.924;28.194;2022-09-01T04:16:44;17;16;
40947;PMS5003;49382;-25.924;28.194;2022-09-01T04:19:10;20;19;
40947;PMS5003;49382;-25.924;28.194;2022-09-01T04:21:36;17;16;
40947;PMS5003;49382;-25.924;28.194;2022-09-01T04:24:01;26;21;
40947;PMS5003;49382;-25.924;28.194;2022-09-01T04:26:26;23;22;
40947;PMS5003;49382;-25.924;28.194;2022-09-01T04:28:52;23;21;
40947;PMS5003;49382;-25.924;28.194;2022-09-01T04:31:18;24;23;
40947;PMS5003;49382;-25.924;28.194;2022-09-01T04:33:43;24;21;
40947;PMS5003;49382;-25.924;28.194;2022-09-01T04:36:13;25;22;
40947;PMS5003;49382;-25.924;28.194;2022-09-01T04:38:33;23;23;
40947;PMS5003;49382;-25.924;28.194;2022-09-01T04:41:02;23;21;
40947;PMS5003;49382;-25.924;28.194;2022-09-01T04:43:24;25;23;
40947;PMS5003;49382;-25.924;28.194;2022-09-01T04:45:50;21;21;
40947;PMS5003;49382;-25.924;28.194;2022-09-01T04:48:15;25;24;
40947;PMS5003;49382;-25.924;28.194;2022-09-01T04:50:41;25;25;
40947;PMS5003;49382;-25.924;28.194;2022-09-01T04:53:06;21;21;
40947;PMS5003;49382;-25.924;28.194;2022-09-01T04:55:31;25;25;
40947;PMS5003;49382;-25.924;28.194;2022-09-01T04:57:58;29;27;
40947;PMS5003;49382;-25.924;28.194;2022-09-01T05:00:24;26;24;
40947;PMS5003;49382;-25.924;28.194;2022-09-01T05:02:49;30;28;
40947;PMS5003;49382;-25.924;28.194;2022-09-01T05:05:13;24;23;
40947;PMS5003;49382;-25.924;28.194;2022-09-01T05:07:39;26;26;
40947;PMS5003;49382;-25.924;28.194;2022-09-01T05:10:04;31;29;
40947;PMS5003;49382;-25.924;28.194;2022-09-01T05:12:29;29;29;
40947;PMS5003;49382;-25.924;28.194;2022-09-01T05:14:55;33;32;
40947;PMS5003;49382;-25.924;28.194;2022-09-01T05:17:20;36;34;
40947;PMS5003;49382;-25.924;28.194;2022-09-01T05:19:46;40;38;
40947;PMS5003;49382;-25.924;28.194;2022-09-01T05:22:12;79;76;
40947;PMS5003;49382;-25.924;28.194;2022-09-01T05:24:37;69;67;
40947;PMS5003;49382;-25.924;28.194;2022-09-01T05:27:03;41;38;
40947;PMS5003;49382;-25.924;28.194;2022-09-01T05:29:28;37;35;
40947;PMS5003;49382;-25.924;28.194;2022-09-01T05:31:53;39;38;
40947;PMS5003;49382;-25.924;28.194;2022-09-01T05:34:19;67;66;
40947;PMS5003;49382;-25.924;28.194;2022-09-01T05:36:44;33;33;
40947;PMS5003;49382;-25.924;28.194;2022-09-01T05:39:09;41;40;
40947;PMS5003;49382;-25.924;28.194;2022-09-01T05:41:35;50;50;
40947;PMS5003;49382;-25.924;28.194;2022-09-01T05:44:01;34;32;
40947;PMS5003;49382;-25.924;28.194;2022-09-01T05:46:26;37;36;
40947;PMS5003;49382;-25.924;28.194;2022-09-01T05:48:52;31;29;
40947;PMS5003;49382;-25.924;28.194;2022-09-01T05:51:18;34;32;
40947;PMS5003;49382;-25.924;28.194;2022-09-01T05:53:42;30;29;
40947;PMS5003;49382;-25.924;28.194;2022-09-01T05:56:08;18;18;
40947;PMS5003;49382;-25.924;28.194;2022-09-01T05:58:33;13;13;
40947;PMS5003;49382;-25.924;28.194;2022-09-01T06:00:59;14;14;
40947;PMS5003;49382;-25.924;28.194;2022-09-01T06:03:24;15;14;
40947;PMS5003;49382;-25.924;28.194;2022-09-01T06:05:49;13;13;
40947;PMS5003;49382;-25.924;28.194;2022-09-01T06:08:14;13;13;
40947;PMS5003;49382;-25.924;28.194;2022-09-01T06:10:39;12;12;
40947;PMS5003;49382;-25.924;28.194;2022-09-01T06:13:04;14;14;
40947;PMS5003;49382;-25.924;28.194;2022-09-01T06:15:29;15;13;
40947;PMS5003;49382;-25.924;28.194;2022-09-01T06:17:54;15;14;
40947;PMS5003;49382;-25.924;28.194;2022-09-01T06:20:20;13;13;
40947;PMS5003;49382;-25.924;28.194;2022-09-01T06:22:46;14;14;
40947;PMS5003;49382;-25.924;28.194;2022-09-01T06:25:11;14;13;
40947;PMS5003;49382;-25.924;28.194;2022-09-01T06:27:36;14;14;
40947;PMS5003;49382;-25.924;28.194;2022-09-01T06:30:01;13;13;
40947;PMS5003;49382;-25.924;28.194;2022-09-01T06:32:26;15;13;
40947;PMS5003;49382;-25.924;28.194;2022-09-01T06:34:51;13;13;
40947;PMS5003;49382;-25.924;28.194;2022-09-01T06:37:16;14;13;
40947;PMS5003;49382;-25.924;28.194;2022-09-01T06:39:41;15;15;
40947;PMS5003;49382;-25.924;28.194;2022-09-01T06:42:07;15;15;
40947;PMS5003;49382;-25.924;28.194;2022-09-01T06:44:32;14;14;
40947;PMS5003;49382;-25.924;28.194;2022-09-01T06:46:57;15;14;
40947;PMS5003;49382;-25.924;28.194;2022-09-01T06:49:22;14;14;
40947;PMS5003;49382;-25.924;28.194;2022-09-01T06:51:47;14;14;
40947;PMS5003;49382;-25.924;28.194;2022-09-01T06:54:13;16;16;
40947;PMS5003;49382;-25.924;28.194;2022-09-01T06:56:38;16;15;
40947;PMS5003;49382;-25.924;28.194;2022-09-01T06:59:03;18;17;
40947;PMS5003;49382;-25.924;28.194;2022-09-01T07:01:28;13;13;
40947;PMS5003;49382;-25.924;28.194;2022-09-01T07:03:54;16;16;
40947;PMS5003;49382;-25.924;28.194;2022-09-01T07:06:20;15;15;
40947;PMS5003;49382;-25.924;28.194;2022-09-01T07:08:44;15;15;
40947;PMS5003;49382;-25.924;28.194;2022-09-01T07:13:35;16;14;
40947;PMS5003;49382;-25.924;28.194;2022-09-01T07:16:00;13;13;
40947;PMS5003;49382;-25.924;28.194;2022-09-01T07:18:25;14;14;
40947;PMS5003;49382;-25.924;28.194;2022-09-01T07:20:50;14;14;
40947;PMS5003;49382;-25.924;28.194;2022-09-01T07:23:16;16;16;
40947;PMS5003;49382;-25.924;28.194;2022-09-01T07:25:42;16;16;
40947;PMS5003;49382;-25.924;28.194;2022-09-01T07:28:07;16;16;
40947;PMS5003;49382;-25.924;28.194;2022-09-01T07:30:31;16;15;
40947;PMS5003;49382;-25.924;28.194;2022-09-01T07:32:57;15;15;
40947;PMS5003;49382;-25.924;28.194;2022-09-01T07:35:22;13;13;
40947;PMS5003;49382;-25.924;28.194;2022-09-01T07:37:47;16;16;
40947;PMS5003;49382;-25.924;28.194;2022-09-01T07:40:12;18;16;
40947;PMS5003;49382;-25.924;28.194;2022-09-01T07:42:38;17;17;
40947;PMS5003;49382;-25.924;28.194;2022-09-01T07:45:03;14;14;
40947;PMS5003;49382;-25.924;28.194;2022-09-01T07:47:28;17;17;
40947;PMS5003;49382;-25.924;28.194;2022-09-01T07:49:52;16;16;
40947;PMS5003;49382;-25.924;28.194;2022-09-01T07:52:18;13;13;
40947;PMS5003;49382;-25.924;28.194;2022-09-01T07:54:44;12;12;
40947;PMS5003;49382;-25.924;28.194;2022-09-01T07:57:09;14;14;
40947;PMS5003;49382;-25.924;28.194;2022-09-01T07:59:34;14;14;
40947;PMS5003;49382;-25.924;28.194;2022-09-01T08:02:00;15;15;
40947;PMS5003;49382;-25.924;28.194;2022-09-01T08:04:26;14;14;
40947;PMS5003;49382;-25.924;28.194;2022-09-01T08:06:52;14;14;
40947;PMS5003;49382;-25.924;28.194;2022-09-01T08:09:18;14;14;
40947;PMS5003;49382;-25.924;28.194;2022-09-01T08:11:43;16;16;
40947;PMS5003;49382;-25.924;28.194;2022-09-01T08:14:09;13;13;
40947;PMS5003;49382;-25.924;28.194;2022-09-01T08:16:35;15;15;
40947;PMS5003;49382;-25.924;28.194;2022-09-01T08:19:01;13;13;
40947;PMS5003;49382;-25.924;28.194;2022-09-01T08:21:27;14;14;
40947;PMS5003;49382;-25.924;28.194;2022-09-01T08:23:53;14;14;
40947;PMS5003;49382;-25.924;28.194;2022-09-01T08:26:21;15;15;
40947;PMS5003;49382;-25.924;28.194;2022-09-01T08:28:45;13;13;
40947;PMS5003;49382;-25.924;28.194;2022-09-01T08:31:11;15;14;
40947;PMS5003;49382;-25.924;28.194;2022-09-01T08:33:36;14;14;
40947;PMS5003;49382;-25.924;28.194;2022-09-01T08:36:01;17;16;
40947;PMS5003;49382;-25.924;28.194;2022-09-01T08:38:27;20;20;
40947;PMS5003;49382;-25.924;28.194;2022-09-01T08:40:53;17;17;
40947;PMS5003;49382;-25.924;28.194;2022-09-01T08:43:18;14;14;
40947;PMS5003;49382;-25.924;28.194;2022-09-01T08:45:45;15;15;
40947;PMS5003;49382;-25.924;28.194;2022-09-01T08:48:11;17;15;
40947;PMS5003;49382;-25.924;28.194;2022-09-01T08:50:35;14;14;
40947;PMS5003;49382;-25.924;28.194;2022-09-01T08:53:02;17;16;
40947;PMS5003;49382;-25.924;28.194;2022-09-01T08:55:27;18;17;
40947;PMS5003;49382;-25.924;28.194;2022-09-01T08:57:53;16;15;
40947;PMS5003;49382;-25.924;28.194;2022-09-01T09:00:21;17;17;
40947;PMS5003;49382;-25.924;28.194;2022-09-01T09:02:49;17;17;
40947;PMS5003;49382;-25.924;28.194;2022-09-01T09:05:16;19;19;
40947;PMS5003;49382;-25.924;28.194;2022-09-01T09:07:43;17;16;
40947;PMS5003;49382;-25.924;28.194;2022-09-01T09:10:04;18;17;
40947;PMS5003;49382;-25.924;28.194;2022-09-01T09:12:31;19;18;
40947;PMS5003;49382;-25.924;28.194;2022-09-01T09:14:56;50;50;
40947;PMS5003;49382;-25.924;28.194;2022-09-01T09:17:20;18;18;
40947;PMS5003;49382;-25.924;28.194;2022-09-01T09:19:44;16;16;
40947;PMS5003;49382;-25.924;28.194;2022-09-01T09:22:11;18;18;
40947;PMS5003;49382;-25.924;28.194;2022-09-01T09:24:36;18;18;
40947;PMS5003;49382;-25.924;28.194;2022-09-01T09:27:01;17;17;
40947;PMS5003;49382;-25.924;28.194;2022-09-01T09:29:27;19;19;
40947;PMS5003;49382;-25.924;28.194;2022-09-01T09:36:44;18;18;
40947;PMS5003;49382;-25.924;28.194;2022-09-01T09:39:11;19;19;
40947;PMS5003;49382;-25.924;28.194;2022-09-01T09:41:35;18;17;
40947;PMS5003;49382;-25.924;28.194;2022-09-01T09:44:02;18;17;
40947;PMS5003;49382;-25.924;28.194;2022-09-01T09:46:27;18;18;
40947;PMS5003;49382;-25.924;28.194;2022-09-01T09:51:19;20;20;
40947;PMS5003;49382;-25.924;28.194;2022-09-01T09:53:43;19;19;
40947;PMS5003;49382;-25.924;28.194;2022-09-01T09:56:15;18;18;
40947;PMS5003;49382;-25.924;28.194;2022-09-01T09:58:36;17;16;
40947;PMS5003;49382;-25.924;28.194;2022-09-01T10:01:01;20;19;
40947;PMS5003;49382;-25.924;28.194;2022-09-01T10:05:51;18;18;
40947;PMS5003;49382;-25.924;28.194;2022-09-01T10:10:43;18;17;
40947;PMS5003;49382;-25.924;28.194;2022-09-01T10:13:10;20;20;
40947;PMS5003;49382;-25.924;28.194;2022-09-01T10:15:34;19;18;
40947;PMS5003;49382;-25.924;28.194;2022-09-01T10:18:03;17;16;
40947;PMS5003;49382;-25.924;28.194;2022-09-01T10:20:25;20;20;
40947;PMS5003;49382;-25.924;28.194;2022-09-01T10:22:51;17;17;
40947;PMS5003;49382;-25.924;28.194;2022-09-01T10:25:18;21;20;
40947;PMS5003;49382;-25.924;28.194;2022-09-01T10:27:43;18;18;
40947;PMS5003;49382;-25.924;28.194;2022-09-01T10:30:10;16;16;
40947;PMS5003;49382;-25.924;28.194;2022-09-01T10:32:37;17;17;
40947;PMS5003;49382;-25.924;28.194;2022-09-01T10:35:01;17;17;
40947;PMS5003;49382;-25.924;28.194;2022-09-01T10:37:26;19;18;
40947;PMS5003;49382;-25.924;28.194;2022-09-01T10:42:17;20;19;
40947;PMS5003;49382;-25.924;28.194;2022-09-01T10:47:10;16;16;
40947;PMS5003;49382;-25.924;28.194;2022-09-01T10:52:01;18;18;
40947;PMS5003;49382;-25.924;28.194;2022-09-01T10:56:52;19;19;
40947;PMS5003;49382;-25.924;28.194;2022-09-01T11:04:09;20;19;
40947;PMS5003;49382;-25.924;28.194;2022-09-01T11:09:01;19;19;
40947;PMS5003;49382;-25.924;28.194;2022-09-01T11:11:27;19;19;
40947;PMS5003;49382;-25.924;28.194;2022-09-01T11:13:51;19;19;
40947;PMS5003;49382;-25.924;28.194;2022-09-01T11:18:41;22;22;
40947;PMS5003;49382;-25.924;28.194;2022-09-01T11:23:32;30;28;
40947;PMS5003;49382;-25.924;28.194;2022-09-01T11:25:58;32;31;
40947;PMS5003;49382;-25.924;28.194;2022-09-01T11:30:51;18;18;
40947;PMS5003;49382;-25.924;28.194;2022-09-01T11:33:19;18;18;
40947;PMS5003;49382;-25.924;28.194;2022-09-01T11:35:39;21;20;
40947;PMS5003;49382;-25.924;28.194;2022-09-01T11:38:05;19;19;
40947;PMS5003;49382;-25.924;28.194;2022-09-01T11:40:32;16;16;
40947;PMS5003;49382;-25.924;28.194;2022-09-01T11:42:55;18;18;
40947;PMS5003;49382;-25.924;28.194;2022-09-01T11:45:22;18;18;
40947;PMS5003;49382;-25.924;28.194;2022-09-01T11:47:47;19;18;
40947;PMS5003;49382;-25.924;28.194;2022-09-01T11:50:17;19;19;
40947;PMS5003;49382;-25.924;28.194;2022-09-01T11:52:38;26;26;
40947;PMS5003;49382;-25.924;28.194;2022-09-01T11:55:05;28;28;
40947;PMS5003;49382;-25.924;28.194;2022-09-01T11:57:30;18;18;
40947;PMS5003;49382;-25.924;28.194;2022-09-01T11:59:56;37;37;
40947;PMS5003;49382;-25.924;28.194;2022-09-01T12:02:21;26;26;
40947;PMS5003;49382;-25.924;28.194;2022-09-01T12:04:45;17;16;
40947;PMS5003;49382;-25.924;28.194;2022-09-01T12:07:12;20;19;
40947;PMS5003;49382;-25.924;28.194;2022-09-01T12:09:37;19;19;
40947;PMS5003;49382;-25.924;28.194;2022-09-01T12:12:03;20;20;
40947;PMS5003;49382;-25.924;28.194;2022-09-01T12:14:27;19;19;
40947;PMS5003;49382;-25.924;28.194;2022-09-01T12:16:56;19;19;
40947;PMS5003;49382;-25.924;28.194;2022-09-01T12:19:21;18;18;
40947;PMS5003;49382;-25.924;28.194;2022-09-01T12:21:54;21;20;
40947;PMS5003;49382;-25.924;28.194;2022-09-01T12:24:11;22;21;
40947;PMS5003;49382;-25.924;28.194;2022-09-01T12:26:35;19;19;
40947;PMS5003;49382;-25.924;28.194;2022-09-01T12:29:00;19;19;
40947;PMS5003;49382;-25.924;28.194;2022-09-01T12:31:25;19;19;
40947;PMS5003;49382;-25.924;28.194;2022-09-01T12:33:51;21;20;
40947;PMS5003;49382;-25.924;28.194;2022-09-01T12:36:20;20;18;
40947;PMS5003;49382;-25.924;28.194;2022-09-01T12:38:41;17;17;
40947;PMS5003;49382;-25.924;28.194;2022-09-01T12:43:34;19;18;
40947;PMS5003;49382;-25.924;28.194;2022-09-01T12:45:57;23;22;
40947;PMS5003;49382;-25.924;28.194;2022-09-01T12:48:23;19;18;
40947;PMS5003;49382;-25.924;28.194;2022-09-01T12:50:49;17;17;
40947;PMS5003;49382;-25.924;28.194;2022-09-01T12:53:17;19;19;
40947;PMS5003;49382;-25.924;28.194;2022-09-01T12:55:41;18;17;
40947;PMS5003;49382;-25.924;28.194;2022-09-01T12:58:06;20;19;
40947;PMS5003;49382;-25.924;28.194;2022-09-01T13:00:32;17;17;
40947;PMS5003;49382;-25.924;28.194;2022-09-01T13:05:24;18;18;
40947;PMS5003;49382;-25.924;28.194;2022-09-01T13:07:46;17;17;
40947;PMS5003;49382;-25.924;28.194;2022-09-01T13:10:11;19;19;
40947;PMS5003;49382;-25.924;28.194;2022-09-01T13:12:38;18;18;
40947;PMS5003;49382;-25.924;28.194;2022-09-01T13:15:02;20;19;
40947;PMS5003;49382;-25.924;28.194;2022-09-01T13:17:28;17;17;
40947;PMS5003;49382;-25.924;28.194;2022-09-01T13:19:53;22;22;
40947;PMS5003;49382;-25.924;28.194;2022-09-01T13:22:18;18;18;
40947;PMS5003;49382;-25.924;28.194;2022-09-01T13:24:43;20;19;
40947;PMS5003;49382;-25.924;28.194;2022-09-01T13:27:08;17;17;
40947;PMS5003;49382;-25.924;28.194;2022-09-01T13:29:34;19;19;
40947;PMS5003;49382;-25.924;28.194;2022-09-01T13:31:59;19;19;
40947;PMS5003;49382;-25.924;28.194;2022-09-01T13:34:24;17;16;
40947;PMS5003;49382;-25.924;28.194;2022-09-01T13:36:50;20;19;
40947;PMS5003;49382;-25.924;28.194;2022-09-01T13:39:16;17;17;
40947;PMS5003;49382;-25.924;28.194;2022-09-01T13:41:42;20;20;
40947;PMS5003;49382;-25.924;28.194;2022-09-01T13:44:07;26;24;
40947;PMS5003;49382;-25.924;28.194;2022-09-01T13:46:32;19;18;
40947;PMS5003;49382;-25.924;28.194;2022-09-01T13:48:58;21;21;
40947;PMS5003;49382;-25.924;28.194;2022-09-01T13:51:24;21;21;
40947;PMS5003;49382;-25.924;28.194;2022-09-01T13:53:50;19;19;
40947;PMS5003;49382;-25.924;28.194;2022-09-01T13:56:14;24;22;
40947;PMS5003;49382;-25.924;28.194;2022-09-01T13:58:39;19;19;
40947;PMS5003;49382;-25.924;28.194;2022-09-01T14:01:05;20;20;
40947;PMS5003;49382;-25.924;28.194;2022-09-01T14:03:31;20;20;
40947;PMS5003;49382;-25.924;28.194;2022-09-01T14:05:56;21;21;
40947;PMS5003;49382;-25.924;28.194;2022-09-01T14:08:21;18;18;
40947;PMS5003;49382;-25.924;28.194;2022-09-01T14:10:47;21;20;
40947;PMS5003;49382;-25.924;28.194;2022-09-01T14:13:12;19;18;
40947;PMS5003;49382;-25.924;28.194;2022-09-01T14:15:36;19;19;
40947;PMS5003;49382;-25.924;28.194;2022-09-01T14:18:02;18;18;
40947;PMS5003;49382;-25.924;28.194;2022-09-01T14:20:28;18;18;
40947;PMS5003;49382;-25.924;28.194;2022-09-01T14:22:53;18;18;
40947;PMS5003;49382;-25.924;28.194;2022-09-01T14:25:19;17;17;
40947;PMS5003;49382;-25.924;28.194;2022-09-01T14:27:45;18;17;
40947;PMS5003;49382;-25.924;28.194;2022-09-01T14:30:12;23;21;
40947;PMS5003;49382;-25.924;28.194;2022-09-01T14:32:35;21;20;
40947;PMS5003;49382;-25.924;28.194;2022-09-01T14:35:00;20;20;
40947;PMS5003;49382;-25.924;28.194;2022-09-01T14:37:26;19;17;
40947;PMS5003;49382;-25.924;28.194;2022-09-01T14:39:52;18;18;
40947;PMS5003;49382;-25.924;28.194;2022-09-01T14:42:17;20;20;
40947;PMS5003;49382;-25.924;28.194;2022-09-01T14:44:43;19;18;
40947;PMS5003;49382;-25.924;28.194;2022-09-01T14:47:08;17;17;
40947;PMS5003;49382;-25.924;28.194;2022-09-01T14:49:34;18;18;
40947;PMS5003;49382;-25.924;28.194;2022-09-01T14:51:59;17;17;
40947;PMS5003;49382;-25.924;28.194;2022-09-01T14:54:24;18;18;
40947;PMS5003;49382;-25.924;28.194;2022-09-01T14:56:49;18;18;
40947;PMS5003;49382;-25.924;28.194;2022-09-01T14:59:15;20;19;
40947;PMS5003;49382;-25.924;28.194;2022-09-01T15:01:41;20;18;
40947;PMS5003;49382;-25.924;28.194;2022-09-01T15:04:06;19;18;
40947;PMS5003;49382;-25.924;28.194;2022-09-01T15:06:31;19;19;
40947;PMS5003;49382;-25.924;28.194;2022-09-01T15:08:57;17;16;
40947;PMS5003;49382;-25.924;28.194;2022-09-01T15:11:23;22;22;
40947;PMS5003;49382;-25.924;28.194;2022-09-01T15:13:48;16;16;
40947;PMS5003;49382;-25.924;28.194;2022-09-01T15:16:13;19;17;
40947;PMS5003;49382;-25.924;28.194;2022-09-01T15:18:38;17;16;
40947;PMS5003;49382;-25.924;28.194;2022-09-01T15:21:04;17;16;
40947;PMS5003;49382;-25.924;28.194;2022-09-01T15:23:29;20;19;
40947;PMS5003;49382;-25.924;28.194;2022-09-01T15:25:55;18;18;
40947;PMS5003;49382;-25.924;28.194;2022-09-01T15:28:20;17;17;
40947;PMS5003;49382;-25.924;28.194;2022-09-01T15:30:45;17;17;
40947;PMS5003;49382;-25.924;28.194;2022-09-01T15:33:11;16;16;
40947;PMS5003;49382;-25.924;28.194;2022-09-01T15:35:35;19;18;
40947;PMS5003;49382;-25.924;28.194;2022-09-01T15:38:01;17;17;
40947;PMS5003;49382;-25.924;28.194;2022-09-01T15:40:26;19;19;
40947;PMS5003;49382;-25.924;28.194;2022-09-01T15:42:51;18;17;
40947;PMS5003;49382;-25.924;28.194;2022-09-01T15:45:17;20;17;
40947;PMS5003;49382;-25.924;28.194;2022-09-01T15:47:42;17;17;
40947;PMS5003;49382;-25.924;28.194;2022-09-01T15:50:09;21;19;
40947;PMS5003;49382;-25.924;28.194;2022-09-01T15:52:33;20;19;
40947;PMS5003;49382;-25.924;28.194;2022-09-01T15:54:58;16;16;
40947;PMS5003;49382;-25.924;28.194;2022-09-01T15:57:23;18;17;
40947;PMS5003;49382;-25.924;28.194;2022-09-01T15:59:48;20;19;
40947;PMS5003;49382;-25.924;28.194;2022-09-01T16:02:14;17;17;
40947;PMS5003;49382;-25.924;28.194;2022-09-01T16:04:39;20;18;
40947;PMS5003;49382;-25.924;28.194;2022-09-01T16:07:04;18;18;
40947;PMS5003;49382;-25.924;28.194;2022-09-01T16:09:29;17;16;
40947;PMS5003;49382;-25.924;28.194;2022-09-01T16:11:54;17;17;
40947;PMS5003;49382;-25.924;28.194;2022-09-01T16:14:20;18;18;
40947;PMS5003;49382;-25.924;28.194;2022-09-01T16:16:47;18;18;